フランクフルト の空港の天気 - METARとTAF

フランクフルト国際空港 ( EDDF / FRA ) - ドイツ フランクフルト・アム・マイン
飛行場実況気象(Metar)
観測時間07/29 04:50 CEST (07/29 02:50 UTC)
風向・風速南西 2m/s
視程10km以上
天気現象
なし
気温16℃
湿度82%
気圧1013hPa
METAREDDF 290250Z 23004KT CAVOK 16/13 Q1013 NOSIG
過去の天気等 Google飛行場航空写真 Wunderground天気予報

過去48時間のMETAR

飛行場予報(TAF)
発表時間: 7/29 01:00 CEST (7/28 23:00 UTC)
予報対象時間: 29日2時 CEST ~ 30日8時 CEST
風向・風速南 3m/s
視程10km以上
なし
29日7時 CEST ~ 29日9時 CEST に徐々に
風向・風速南西 5m/s
29日11時 CEST ~ 29日19時 CEST に一時的に
風向・風速西南西 8m/s 瞬間風速 13m/s
29日20時 CEST ~ 29日23時 CEST に徐々に
風向・風速南西 3m/s
29日23時 CEST ~ 30日2時 CEST に徐々に
風向・風速不定 2m/s
TAF EDDF 282300Z 2900/3006 19005KT CAVOK
BECMG 2905/2907 22010KT
TEMPO 2909/2917 24015G25KT
BECMG 2918/2921 22005KT
BECMG 2921/2924 VRB03KT